Ogallala, NE

8:50 AM MST on March 01, 2015 (GMT -0700)
MesoWest | Change Station
CLOSE
Current Station
Personal Weather Station
Location: Ogallala, NE
Elevation: 3206 ft
Nearby Weather Stations
Active Advisory: Flood Warning

Elev 3206 ft 41.13 °N, 101.66 °W | Updated 21 days ago

Partly Cloudy
Partly Cloudy
28 °F
Feels Like 23 °F
N
6
Wind Variable Wind from North
Gusts 6 mph

Today
High -- | Low -- °F
--% Chance of Precip.
Yesterday
High -- | Low -- °F
Precip. -- in
6:21 AM 5:37 PM
Waxing Gibbous, 85% visible
Pressure 30.29 in
Visibility 10.0 miles
Clouds Clear
Windchill 23 °F
Dew Point 12 °F
Humidity 50%
Rainfall -999.00 in
Snow Depth Not available.
UV 2 out of 12
Pollen .30 out of 12
Air Quality Not available.
Flu Activity Not available.
METAR KOGA 011535Z AUTO 05004KT 10SM CLR M05/M11 A3029 RMK AO2 T10521110

More Conditions Fewer Conditions

Pressure 30.29 in
Visibility 10.0 miles
Clouds Clear
Windchill 23 °F
Dew Point 12 °F
Humidity 50%
Rainfall -999.00 in
Snow Depth Not available.
UV 2 out of 12
Pollen .30 out of 12
Air Quality Not available.
Flu Activity Not available.
METAR KOGA 011535Z AUTO 05004KT 10SM CLR M05/M11 A3029 RMK AO2 T10521110

More Conditions Fewer Conditions

10-Day Weather Forecast

Almanac

Astronomy

Mar. 01, 2015 Rise Set
Actual Time
Civil Twilight
Nautical Twilight
Astronomical Twilight
Moon
Length of Visible Light
Length of Day
Tomorrow will be .
, % of the Moon is Illuminated

Today's Extremes

State Highs State Lows

Community

WunderPhotos

Upload Photos

1,801,435 photos uploaded!

WunderBlogs® & News

Nearby

Air Quality

  Air Quality AQ Index Pollutant
Not available.

Snow Depth

Station Depth Elevation

Earthquake Activity

City Distance Mag. Time & Date
Minimum magnitude displayed is 2.5.

Coastal Water Temperatures

Place Temperature

Nearby Weather Stations

Flood Warning
Statement as of 7:37 PM MST on February 28, 2015

The National Weather Service in North Platte has issued
* Flood Warning for
the North Platte river at Lewellen.
* At 02/28 16:00 the stage was 7.7 feet.
* Flood stage is 7.5 feet.
* Minor flooding is occurring and is forecast to continue through
at least mid-week.
* Impact... at 7.5 feet... minor flood stage. Overflow and high water
table levels will cause seepage and flooding of basements and crawl
spaces near and along the river.
* Flood history... this crest compares to a previous crest of 7.7 feet
on Jun 14 1995.


Lat... Lon 4136 10235 4140 10235 4130 10196 4126 10197


Springer